createdAt,value
2018-07-04T00:02:11.919Z,68.89
2018-07-04T00:04:57.983Z,69.87
2018-07-04T00:07:44.039Z,69.42
2018-07-04T00:10:30.129Z,69.32
2018-07-04T00:13:16.308Z,69.42
2018-07-04T00:16:02.509Z,70.24
2018-07-04T00:18:48.847Z,70.74
2018-07-04T00:21:34.846Z,71.25
2018-07-04T00:24:20.987Z,72.61
2018-07-04T00:27:07.212Z,71.96
2018-07-04T00:29:53.315Z,72.49
2018-07-04T00:32:39.512Z,72.69
2018-07-04T00:35:25.525Z,72.51
2018-07-04T00:38:11.741Z,71.90
2018-07-04T00:40:57.815Z,72.32
2018-07-04T00:43:44.048Z,71.59
2018-07-04T00:46:30.052Z,72.04
2018-07-04T00:49:16.299Z,71.62
2018-07-04T00:52:02.469Z,72.03
2018-07-04T00:54:48.658Z,72.11
2018-07-04T00:57:34.827Z,71.40
2018-07-04T01:00:21.013Z,72.55
2018-07-04T01:03:07.067Z,71.71
2018-07-04T01:05:53.157Z,71.86
2018-07-04T01:08:39.256Z,72.11
2018-07-04T01:11:25.321Z,72.24
2018-07-04T01:14:11.297Z,71.47
2018-07-04T01:16:57.465Z,71.86
2018-07-04T01:19:43.692Z,71.79
2018-07-04T01:22:29.820Z,72.71
2018-07-04T01:25:15.971Z,72.68
2018-07-04T01:28:02.229Z,72.88
2018-07-04T01:30:48.338Z,72.42
2018-07-04T01:33:34.473Z,72.44
2018-07-04T01:36:20.689Z,72.51
2018-07-04T01:39:06.786Z,73.28
2018-07-04T01:41:53.015Z,73.25
2018-07-04T01:44:39.001Z,72.36
2018-07-04T01:47:25.246Z,72.62
2018-07-04T01:50:11.275Z,72.04
2018-07-04T01:52:57.544Z,72.41
2018-07-04T01:55:43.816Z,73.35
2018-07-04T01:58:29.812Z,73.26
2018-07-04T02:01:15.915Z,73.50
2018-07-04T02:04:02.069Z,73.83
2018-07-04T02:06:48.152Z,73.79
2018-07-04T02:09:34.305Z,73.30
2018-07-04T02:12:20.361Z,73.74
2018-07-04T02:15:06.636Z,74.22
2018-07-04T02:17:52.740Z,74.62
2018-07-04T02:20:38.756Z,73.18
2018-07-04T02:23:24.883Z,73.61
2018-07-04T02:26:11.084Z,72.59
2018-07-04T02:28:57.067Z,72.96
2018-07-04T02:31:43.240Z,73.40
2018-07-04T02:34:29.288Z,73.87
2018-07-04T02:37:15.400Z,74.29
2018-07-04T02:40:01.500Z,74.46
2018-07-04T02:42:47.718Z,75.36
2018-07-04T02:45:33.920Z,74.57
2018-07-04T02:48:20.318Z,74.70
2018-07-04T02:51:06.325Z,75.65
2018-07-04T02:53:52.581Z,74.78
2018-07-04T02:56:38.704Z,74.83
2018-07-04T02:59:24.751Z,73.94
2018-07-04T03:02:10.988Z,74.08
2018-07-04T03:04:57.285Z,74.70
2018-07-04T03:07:43.311Z,75.01
2018-07-04T03:10:29.505Z,75.85
2018-07-04T03:13:15.756Z,76.01
2018-07-04T03:16:01.832Z,75.50
2018-07-04T03:18:47.913Z,75.08
2018-07-04T03:21:34.040Z,75.09
2018-07-04T03:24:20.114Z,75.06
2018-07-04T03:27:06.380Z,75.58
2018-07-04T03:29:52.504Z,74.99
2018-07-04T03:32:38.709Z,74.69
2018-07-04T03:35:24.900Z,75.42
2018-07-04T03:38:11.109Z,75.61
2018-07-04T03:40:57.152Z,75.52
2018-07-04T03:43:43.294Z,75.90
2018-07-04T03:46:29.432Z,74.55
2018-07-04T03:49:15.500Z,74.33
2018-07-04T03:52:01.621Z,74.04
2018-07-04T03:54:47.760Z,74.40
2018-07-04T03:57:33.988Z,73.72
2018-07-04T04:00:20.169Z,73.87
2018-07-04T04:03:06.172Z,74.02
2018-07-04T04:05:52.344Z,74.48
2018-07-04T04:08:38.578Z,73.96
2018-07-04T04:11:24.820Z,73.40
2018-07-04T04:14:11.027Z,73.27
2018-07-04T04:16:57.019Z,73.01
2018-07-04T04:19:43.230Z,71.53
2018-07-04T04:22:29.192Z,71.80
2018-07-04T04:25:15.256Z,70.50
2018-07-04T04:28:01.420Z,70.63
2018-07-04T04:30:47.653Z,70.21
2018-07-04T04:33:33.892Z,71.49
2018-07-04T04:36:19.926Z,71.25
2018-07-04T04:39:05.976Z,70.18
2018-07-04T04:41:52.255Z,69.79
2018-07-04T04:44:38.377Z,69.58
2018-07-04T04:47:24.438Z,69.23
2018-07-04T04:50:10.516Z,69.55
2018-07-04T04:52:56.565Z,68.61
2018-07-04T04:55:42.721Z,68.28
2018-07-04T04:58:28.966Z,68.08
2018-07-04T05:01:15.155Z,67.25
2018-07-04T05:04:01.368Z,64.50
2018-07-04T05:06:47.416Z,64.99
2018-07-04T05:09:34.776Z,68.53
2018-07-04T05:12:20.847Z,70.50
2018-07-04T05:15:07.057Z,69.91
2018-07-04T05:17:53.136Z,69.29
2018-07-04T05:20:39.187Z,69.40
2018-07-04T05:23:25.370Z,69.03
2018-07-04T05:26:11.501Z,70.16
2018-07-04T05:28:57.625Z,68.75
2018-07-04T05:31:43.679Z,68.51
2018-07-04T05:34:29.811Z,68.68
2018-07-04T05:37:15.803Z,67.34
2018-07-04T05:40:02.057Z,65.26
2018-07-04T05:42:48.248Z,66.00
2018-07-04T05:45:34.630Z,66.01
2018-07-04T05:48:20.533Z,65.60
2018-07-04T05:51:06.620Z,65.25
2018-07-04T05:53:52.764Z,64.91
2018-07-04T05:56:38.772Z,64.99
2018-07-04T05:59:24.824Z,65.58
2018-07-04T06:02:11.028Z,65.13
2018-07-04T06:04:57.067Z,65.21
2018-07-04T06:07:43.053Z,64.60
2018-07-04T06:10:29.259Z,63.02
2018-07-04T06:13:15.260Z,63.45
2018-07-04T06:16:01.521Z,63.64
2018-07-04T06:18:47.629Z,64.66
2018-07-04T06:21:33.632Z,64.15
2018-07-04T06:24:19.675Z,63.75
2018-07-04T06:27:05.798Z,64.54
2018-07-04T06:29:51.981Z,64.37
2018-07-04T06:32:37.980Z,65.05
2018-07-04T06:35:24.157Z,62.65
2018-07-04T06:37:51.879Z,62.47
2018-07-04T06:40:19.610Z,62.25
2018-07-04T06:42:47.316Z,60.31
2018-07-04T06:45:15.020Z,61.69
2018-07-04T06:47:42.728Z,60.16
2018-07-04T06:50:10.451Z,58.59
2018-07-04T06:52:38.170Z,59.47
2018-07-04T06:55:05.883Z,58.99
2018-07-04T06:57:33.584Z,59.06
2018-07-04T07:00:01.289Z,57.59
2018-07-04T07:02:29.030Z,54.61
2018-07-04T07:05:15.123Z,54.15
2018-07-04T07:08:01.231Z,52.66
2018-07-04T07:10:47.436Z,55.32
2018-07-04T07:13:33.564Z,53.79
2018-07-04T07:16:19.801Z,55.67
2018-07-04T07:19:06.030Z,54.84
2018-07-04T07:21:52.151Z,53.25
2018-07-04T07:24:38.286Z,54.28
2018-07-04T07:27:24.421Z,54.61
2018-07-04T07:30:10.439Z,53.39
2018-07-04T07:32:56.444Z,54.38
2018-07-04T07:35:42.599Z,54.25
2018-07-04T07:38:28.788Z,54.76
2018-07-04T07:41:14.920Z,53.50
2018-07-04T07:44:01.027Z,52.36
2018-07-04T07:46:47.319Z,52.10
2018-07-04T07:49:33.439Z,50.91
2018-07-04T07:52:19.602Z,52.10
2018-07-04T07:55:05.598Z,50.80
2018-07-04T07:57:51.596Z,51.54
2018-07-04T08:00:37.592Z,51.93
2018-07-04T08:03:23.597Z,47.51
2018-07-04T08:09:10.128Z,45.27
2018-07-04T08:11:56.369Z,44.58
2018-07-04T08:14:42.612Z,42.50
2018-07-04T08:17:28.696Z,44.83
2018-07-04T08:20:14.875Z,43.79
2018-07-04T08:23:00.979Z,43.51
2018-07-04T08:25:47.114Z,44.46
2018-07-04T08:28:33.240Z,46.46
2018-07-04T08:31:19.472Z,47.98
2018-07-04T08:34:05.616Z,47.66
2018-07-04T08:36:51.768Z,48.28
2018-07-04T08:39:37.960Z,45.69
2018-07-04T08:42:24.060Z,47.15
2018-07-04T08:45:10.217Z,46.16
2018-07-04T08:47:56.284Z,46.38
2018-07-04T08:50:42.487Z,47.59
2018-07-04T08:53:28.623Z,45.19
2018-07-04T08:56:14.817Z,46.00
2018-07-04T08:59:00.907Z,47.03
2018-07-04T09:01:47.029Z,47.17
2018-07-04T09:04:33.171Z,46.41
2018-07-04T09:07:19.199Z,44.23
2018-07-04T09:10:05.721Z,44.23
2018-07-04T09:12:51.787Z,43.38
2018-07-04T09:15:37.803Z,44.87
2018-07-04T09:18:23.874Z,44.58
2018-07-04T09:21:10.054Z,43.65
2018-07-04T09:23:56.240Z,44.11
2018-07-04T09:26:42.336Z,43.58
2018-07-04T09:29:28.456Z,42.13
2018-07-04T09:32:14.495Z,43.47
2018-07-04T09:35:00.476Z,44.40
2018-07-04T09:37:46.573Z,44.14
2018-07-04T09:40:32.524Z,43.07
2018-07-04T09:43:18.554Z,42.75
2018-07-04T09:46:04.648Z,41.53
2018-07-04T09:48:50.849Z,45.24
2018-07-04T09:51:36.986Z,41.25
2018-07-04T09:54:23.228Z,40.13
2018-07-04T09:57:09.484Z,39.48
2018-07-04T09:59:55.564Z,39.60
2018-07-04T10:02:41.695Z,42.26
2018-07-04T10:05:27.953Z,40.11
2018-07-04T10:08:14.084Z,37.63
2018-07-04T10:11:00.328Z,37.18
2018-07-04T10:13:46.555Z,36.48
2018-07-04T10:16:32.613Z,37.93
2018-07-04T10:19:18.712Z,38.17
2018-07-04T10:22:04.841Z,36.85
2018-07-04T10:24:50.943Z,36.33
2018-07-04T10:27:37.076Z,36.13
2018-07-04T10:30:23.268Z,38.90
2018-07-04T10:33:09.475Z,38.72
2018-07-04T10:35:55.461Z,39.09
2018-07-04T10:38:41.700Z,39.47
2018-07-04T10:41:27.807Z,39.10
2018-07-04T10:44:13.948Z,36.02
2018-07-04T10:47:00.025Z,36.97
2018-07-04T10:49:46.128Z,37.47
2018-07-04T10:52:32.191Z,36.92
2018-07-04T10:55:18.288Z,35.25
2018-07-04T10:58:04.485Z,36.08
2018-07-04T11:00:50.624Z,36.87
2018-07-04T11:03:36.864Z,33.83
2018-07-04T11:06:23.064Z,35.36
2018-07-04T11:09:09.141Z,37.59
2018-07-04T11:11:55.293Z,33.89
2018-07-04T11:14:41.392Z,35.64
2018-07-04T11:17:27.625Z,34.98
2018-07-04T11:20:13.732Z,35.83
2018-07-04T11:22:59.811Z,34.64
2018-07-04T11:25:46.027Z,32.62
2018-07-04T11:28:32.158Z,33.84
2018-07-04T11:31:18.416Z,32.49
2018-07-04T11:34:04.703Z,33.71
2018-07-04T11:36:50.840Z,34.48
2018-07-04T11:39:37.070Z,33.91
2018-07-04T11:42:23.128Z,33.88
2018-07-04T11:45:09.376Z,33.47
2018-07-04T11:47:37.080Z,33.62
2018-07-04T11:50:04.819Z,33.63
2018-07-04T11:52:32.528Z,34.66
2018-07-04T11:55:00.248Z,34.33
2018-07-04T11:57:27.968Z,34.35
2018-07-04T11:59:55.680Z,34.29
2018-07-04T12:02:23.436Z,33.42
2018-07-04T12:05:09.639Z,34.79
2018-07-04T12:07:37.368Z,32.62
2018-07-04T12:10:05.089Z,33.59
2018-07-04T12:12:32.823Z,33.69
2018-07-04T12:15:00.519Z,31.52
2018-07-04T12:17:28.235Z,33.05
2018-07-04T12:19:55.960Z,31.87
2018-07-04T12:22:23.665Z,32.54
2018-07-04T12:24:51.406Z,31.97
2018-07-04T12:27:19.111Z,31.04
2018-07-04T12:29:46.822Z,32.05
2018-07-04T12:32:14.552Z,32.54
2018-07-04T12:34:42.248Z,33.06
2018-07-04T12:37:09.972Z,30.45
2018-07-04T12:39:37.673Z,31.61
2018-07-04T12:49:07.411Z,31.93
2018-07-04T12:51:35.968Z,32.52
2018-07-04T12:55:12.728Z,31.53
2018-07-04T12:57:59.197Z,32.95
2018-07-04T13:03:49.319Z,30.32
2018-07-04T13:06:35.894Z,32.88
2018-07-04T13:09:22.144Z,33.31
2018-07-04T13:12:08.540Z,33.00
2018-07-04T13:14:55.100Z,31.77
2018-07-04T13:17:41.652Z,33.62
2018-07-04T13:20:28.204Z,32.67
2018-07-04T13:23:14.580Z,31.48
2018-07-04T13:26:01.009Z,33.47
2018-07-04T13:28:47.454Z,33.08
2018-07-04T13:31:33.977Z,32.94
2018-07-04T13:34:20.416Z,31.94
2018-07-04T13:37:06.939Z,31.18
2018-07-04T13:39:54.083Z,31.58
2018-07-04T13:42:40.339Z,30.87
2018-07-04T13:45:26.736Z,31.45
2018-07-04T13:48:13.145Z,29.16
2018-07-04T13:50:59.573Z,31.53
2018-07-04T13:53:46.108Z,32.10
2018-07-04T13:56:32.578Z,30.81
2018-07-04T13:59:18.999Z,30.00
2018-07-04T14:02:05.460Z,29.80
2018-07-04T14:04:45.638Z,31.01
2018-07-04T14:07:32.204Z,31.91
2018-07-04T14:10:18.907Z,31.26
2018-07-04T14:13:05.179Z,31.53
2018-07-04T14:15:51.612Z,33.07
2018-07-04T14:18:38.086Z,32.23
2018-07-04T14:21:25.708Z,33.04
2018-07-04T14:24:12.056Z,32.48
2018-07-04T14:26:58.496Z,32.93
2018-07-04T14:29:45.023Z,29.57
2018-07-04T14:32:31.379Z,28.83
2018-07-04T14:35:17.649Z,28.41
2018-07-04T14:38:04.012Z,26.81
2018-07-04T14:40:51.134Z,26.97
2018-07-04T14:43:37.467Z,26.32
2018-07-04T14:46:23.792Z,26.48
2018-07-04T14:49:10.408Z,26.51
2018-07-04T14:51:56.823Z,28.45
2018-07-04T14:54:43.228Z,30.48
2018-07-04T14:57:29.608Z,31.72
2018-07-04T15:00:15.869Z,33.50
2018-07-04T15:03:02.297Z,36.82
2018-07-04T15:05:42.752Z,39.78
2018-07-04T15:08:29.079Z,38.75
2018-07-04T15:11:15.316Z,35.85
2018-07-04T15:14:01.619Z,36.85
2018-07-04T15:16:48.121Z,38.08
2018-07-04T15:19:34.389Z,38.98
2018-07-04T15:22:20.957Z,35.23
2018-07-04T15:25:07.418Z,35.37
2018-07-04T15:27:53.992Z,37.69
2018-07-04T15:30:40.230Z,39.75
2018-07-04T15:33:26.537Z,41.04
2018-07-04T15:36:12.836Z,42.03
2018-07-04T15:39:03.515Z,42.61
2018-07-04T15:41:50.188Z,43.20
2018-07-04T15:44:36.495Z,43.20
2018-07-04T15:47:22.822Z,44.03
2018-07-04T15:50:09.092Z,44.13
2018-07-04T15:52:55.569Z,43.57
2018-07-04T15:55:41.801Z,45.30
2018-07-04T15:58:29.313Z,44.93
2018-07-04T16:01:15.530Z,45.37
2018-07-04T16:04:01.836Z,44.56
2018-07-04T16:06:48.502Z,44.39
2018-07-04T16:09:34.752Z,47.13
2018-07-04T16:12:21.200Z,47.16
2018-07-04T16:15:07.583Z,46.20
2018-07-04T16:17:57.319Z,48.31
2018-07-04T16:20:43.752Z,47.26
2018-07-04T16:23:30.188Z,47.29
2018-07-04T16:26:16.387Z,47.69
2018-07-04T16:29:02.653Z,46.40
2018-07-04T16:31:48.944Z,46.29
2018-07-04T16:34:35.360Z,45.77
2018-07-04T16:37:21.822Z,44.96
2018-07-04T16:40:08.214Z,41.10
2018-07-04T16:42:54.656Z,37.68
2018-07-04T16:45:41.133Z,37.00
2018-07-04T16:48:27.563Z,37.32
2018-07-04T16:51:14.580Z,37.08
2018-07-04T16:54:01.059Z,36.84
2018-07-04T16:56:47.560Z,36.47
2018-07-04T16:59:34.064Z,37.46
2018-07-04T17:02:20.517Z,37.65
2018-07-04T17:05:06.951Z,36.74
2018-07-04T17:07:53.183Z,34.74
2018-07-04T17:10:39.720Z,34.73
2018-07-04T17:13:26.152Z,34.98
2018-07-04T17:16:12.509Z,34.18
2018-07-04T17:19:01.632Z,34.55
2018-07-04T17:21:48.198Z,35.23
2018-07-04T17:24:34.633Z,34.26
2018-07-04T17:30:22.020Z,35.10
2018-07-04T17:33:08.393Z,34.94
2018-07-04T17:36:06.773Z,35.93
2018-07-04T17:38:53.245Z,36.02
2018-07-04T17:41:41.514Z,35.15
2018-07-04T17:50:28.863Z,35.98
2018-07-04T17:53:15.340Z,36.02
2018-07-04T17:56:01.849Z,36.74
2018-07-04T17:58:48.235Z,35.97
2018-07-04T18:01:39.208Z,37.35
2018-07-04T18:04:27.614Z,37.55
2018-07-04T18:07:14.063Z,38.61
2018-07-04T18:10:07.893Z,38.73
2018-07-04T18:15:58.119Z,42.62
2018-07-04T18:18:44.483Z,45.33
2018-07-04T18:21:32.522Z,44.96
2018-07-04T18:24:18.712Z,46.73
2018-07-04T18:27:07.256Z,47.91
2018-07-04T18:32:54.217Z,46.59
2018-07-04T18:35:42.725Z,47.60
2018-07-04T18:38:29.633Z,49.59
2018-07-04T18:41:20.040Z,50.15
2018-07-04T18:44:06.372Z,50.54
2018-07-04T18:46:58.196Z,50.96
2018-07-04T18:49:45.714Z,53.21
2018-07-04T18:52:32.100Z,53.19
2018-07-04T18:55:18.660Z,51.48
2018-07-04T18:58:05.035Z,54.17
2018-07-04T19:00:51.457Z,53.61
2018-07-04T19:03:37.998Z,55.20
2018-07-04T19:06:24.452Z,54.26
2018-07-04T19:09:05.687Z,57.17
2018-07-04T19:11:53.684Z,57.62
2018-07-04T19:14:40.132Z,56.74
2018-07-04T19:17:27.120Z,56.70
2018-07-04T19:20:19.051Z,59.20
2018-07-04T19:23:05.378Z,58.82
2018-07-04T19:25:52.460Z,58.58
2018-07-04T19:28:38.823Z,60.36
2018-07-04T19:31:25.235Z,61.36
2018-07-04T19:34:05.644Z,61.96
2018-07-04T19:36:52.136Z,59.69
2018-07-04T19:39:38.759Z,60.47
2018-07-04T19:42:25.951Z,61.28
2018-07-04T19:45:12.110Z,61.85
2018-07-04T19:47:58.592Z,63.12
2018-07-04T19:50:44.787Z,63.43
2018-07-04T19:53:31.220Z,63.58
2018-07-04T19:56:17.610Z,64.44
2018-07-04T19:59:07.940Z,64.23
2018-07-04T20:01:54.240Z,65.06
2018-07-04T20:04:44.763Z,65.38
2018-07-04T20:07:31.085Z,65.72
2018-07-04T20:10:17.384Z,66.93
2018-07-04T20:13:03.992Z,65.86
2018-07-04T20:15:50.340Z,67.32
2018-07-04T20:18:36.684Z,66.50
2018-07-04T20:21:27.284Z,67.06
2018-07-04T20:24:13.636Z,68.01
2018-07-04T20:27:00.362Z,67.68
2018-07-04T20:29:46.808Z,67.28
2018-07-04T20:32:33.248Z,68.57
2018-07-04T20:35:19.653Z,67.53
2018-07-04T20:38:08.092Z,68.43
2018-07-04T20:40:54.509Z,68.54
2018-07-04T20:43:40.844Z,68.88
2018-07-04T20:46:27.224Z,69.33
2018-07-04T20:49:13.910Z,71.34
2018-07-04T20:52:00.384Z,71.24
2018-07-04T20:54:46.803Z,71.05
2018-07-04T20:57:33.161Z,70.77
2018-07-04T21:00:19.725Z,70.92
2018-07-04T21:03:06.146Z,71.46
2018-07-04T21:05:52.572Z,71.55
2018-07-04T21:08:38.982Z,71.11
2018-07-04T21:11:25.475Z,71.80
2018-07-04T21:14:17.384Z,72.18
2018-07-04T21:17:03.895Z,72.62
2018-07-04T21:19:50.506Z,73.06
2018-07-04T21:22:36.981Z,74.10
2018-07-04T21:25:23.451Z,74.71
2018-07-04T21:28:15.019Z,74.87
2018-07-04T21:31:01.561Z,75.44
2018-07-04T21:33:47.998Z,74.57
2018-07-04T21:36:34.442Z,74.97
2018-07-04T21:39:20.783Z,75.62
2018-07-04T21:42:11.130Z,75.08
2018-07-04T21:44:57.547Z,75.34
2018-07-04T21:47:44.033Z,76.73
2018-07-04T21:50:30.437Z,76.49
2018-07-04T21:53:16.939Z,76.29
2018-07-04T21:56:03.481Z,78.18
2018-07-04T21:58:49.784Z,77.13
2018-07-04T22:01:36.147Z,77.81
2018-07-04T22:04:22.628Z,77.35
2018-07-04T22:07:08.799Z,78.14
2018-07-04T22:09:55.247Z,77.58
2018-07-04T22:12:41.593Z,78.12
2018-07-04T22:15:28.023Z,78.09
2018-07-04T22:18:14.761Z,78.44
2018-07-04T22:21:01.247Z,78.95
2018-07-04T22:23:47.626Z,79.88
2018-07-04T22:26:33.986Z,79.84
2018-07-04T22:29:20.359Z,79.23
2018-07-04T22:32:06.745Z,79.96
2018-07-04T22:34:53.182Z,78.90
2018-07-04T22:37:39.524Z,79.63
2018-07-04T22:40:25.825Z,81.03
2018-07-04T22:43:12.351Z,80.75
2018-07-04T22:46:02.812Z,80.62
2018-07-04T22:48:43.225Z,81.25
2018-07-04T22:51:29.820Z,81.25
2018-07-04T22:54:16.311Z,80.79
2018-07-04T22:57:02.792Z,81.98
2018-07-04T22:59:49.202Z,81.79
2018-07-04T23:02:35.752Z,82.92
2018-07-04T23:05:22.264Z,82.32
2018-07-04T23:08:08.676Z,82.71
2018-07-04T23:10:55.231Z,82.02
2018-07-04T23:13:41.724Z,83.01
2018-07-04T23:16:28.071Z,82.61
2018-07-04T23:19:14.470Z,81.95
2018-07-04T23:22:00.962Z,83.32
2018-07-04T23:24:48.582Z,83.65
2018-07-04T23:27:34.973Z,83.63
2018-07-04T23:30:21.777Z,83.54
2018-07-04T23:33:08.396Z,84.20
2018-07-04T23:35:55.060Z,84.34
2018-07-04T23:38:41.691Z,85.06
2018-07-04T23:41:28.176Z,84.99
2018-07-04T23:44:14.723Z,84.63
2018-07-04T23:47:01.133Z,84.56
2018-07-04T23:49:47.661Z,84.68
2018-07-04T23:52:34.190Z,85.14
2018-07-04T23:55:20.922Z,85.82
2018-07-04T23:58:07.305Z,85.23
